Time;durP1;ratioP1;P1;durP2;ratioP2;P2;SDS_P1;SDS_P2;PMS_P1;PMS_P2;Temp;Humidity;BMP_temperature;BMP_pressure;BME280_temperature;BME280_humidity;BME280_pressure;Samples;Min_cycle;Max_cycle;Signal;HPM_P1;HPM_P2
2021/12/03 00:00:28;;;;;;;4.82;1.58;;;0.80;99.90;;;;;;5051997;28;20563;-71
2021/12/03 00:02:55;;;;;;;7.32;1.65;;;0.70;99.90;;;;;;5051365;28;20053;-71
2021/12/03 00:05:22;;;;;;;6.43;2.08;;;0.70;99.90;;;;;;5068861;28;20107;-71
2021/12/03 00:07:50;;;;;;;5.93;1.60;;;0.70;99.90;;;;;;5068876;28;20493;-72
2021/12/03 00:10:21;;;;;;;3.33;1.40;;;0.90;99.90;;;;;;5067911;28;20107;-71
2021/12/03 00:12:49;;;;;;;6.13;1.50;;;0.60;99.90;;;;;;5068989;28;20493;-71
2021/12/03 00:15:17;;;;;;;3.58;1.42;;;0.60;99.90;;;;;;5069253;28;20107;-72
2021/12/03 00:17:44;;;;;;;4.70;1.60;;;0.60;99.90;;;;;;5051403;28;20477;-71
2021/12/03 00:20:15;;;;;;;6.15;2.22;;;0.60;99.90;;;;;;5052168;28;20060;-71
2021/12/03 00:22:42;;;;;;;6.50;1.98;;;0.60;99.90;;;;;;5031343;28;20068;-71
2021/12/03 00:25:10;;;;;;;5.65;1.85;;;0.60;99.90;;;;;;5032342;28;20481;-71
2021/12/03 00:27:37;;;;;;;7.22;2.13;;;0.60;99.90;;;;;;5031885;28;20489;-72
2021/12/03 00:30:08;;;;;;;3.80;1.42;;;0.60;99.90;;;;;;5031521;28;20111;-72
2021/12/03 00:32:35;;;;;;;3.80;1.45;;;0.70;99.90;;;;;;5032185;28;20115;-72
2021/12/03 00:35:03;;;;;;;6.40;1.80;;;0.70;99.90;;;;;;5032007;28;20092;-71
2021/12/03 00:37:29;;;;;;;3.28;1.83;;;0.70;99.90;;;;;;5064332;28;20071;-72
2021/12/03 00:39:56;;;;;;;5.50;1.65;;;0.70;99.90;;;;;;5068654;28;20110;-72
2021/12/03 00:42:25;;;;;;;5.68;1.75;;;0.70;99.90;;;;;;5068263;28;20107;-72
2021/12/03 00:44:55;;;;;;;2.88;1.80;;;0.70;99.90;;;;;;5068052;28;20135;-72
2021/12/03 00:47:24;;;;;;;5.00;1.55;;;0.70;99.90;;;;;;5051613;28;20070;-72
2021/12/03 00:49:51;;;;;;;4.50;1.92;;;0.70;99.90;;;;;;5051446;28;20057;-71
2021/12/03 00:52:19;;;;;;;6.05;2.13;;;0.70;99.90;;;;;;5050887;28;20057;-72
2021/12/03 00:54:46;;;;;;;4.40;1.63;;;0.70;99.90;;;;;;5031928;28;20152;-72
2021/12/03 00:57:13;;;;;;;5.18;1.58;;;0.70;99.90;;;;;;5032070;28;20053;-71
2021/12/03 00:59:40;;;;;;;4.68;1.65;;;0.70;99.90;;;;;;5047678;28;20091;-72
2021/12/03 01:02:07;;;;;;;8.05;1.73;;;0.70;99.90;;;;;;5031524;28;20110;-72
2021/12/03 01:04:35;;;;;;;3.72;1.70;;;0.80;99.90;;;;;;5053925;28;20142;-72
2021/12/03 01:07:02;;;;;;;3.55;1.67;;;0.80;99.90;;;;;;5067352;28;20501;-72
2021/12/03 01:09:31;;;;;;;7.93;2.47;;;0.80;99.90;;;;;;5051144;28;20049;-72
2021/12/03 01:11:58;;;;;;;3.65;1.98;;;0.80;99.90;;;;;;5050306;28;20053;-72
2021/12/03 01:14:26;;;;;;;5.80;2.20;;;0.80;99.90;;;;;;5050657;28;20158;-72
2021/12/03 01:16:53;;;;;;;3.70;2.30;;;0.70;99.90;;;;;;5051413;28;20056;-72
2021/12/03 01:19:20;;;;;;;4.82;1.77;;;0.70;99.90;;;;;;5050608;28;20084;-71
2021/12/03 01:21:49;;;;;;;4.15;2.33;;;0.70;99.90;;;;;;5050707;28;20048;-71
2021/12/03 01:24:16;;;;;;;3.60;1.77;;;0.70;99.90;;;;;;5051032;28;20057;-71
2021/12/03 01:26:44;;;;;;;8.40;1.95;;;0.70;99.90;;;;;;5050389;28;20076;-71
2021/12/03 01:29:12;;;;;;;4.35;1.67;;;0.70;99.90;;;;;;5050980;28;20128;-71
2021/12/03 01:31:39;;;;;;;6.32;2.13;;;0.60;99.90;;;;;;5050501;28;20077;-71
2021/12/03 01:34:05;;;;;;;4.15;2.28;;;0.60;99.90;;;;;;5050534;28;20056;-71
2021/12/03 01:36:32;;;;;;;8.65;2.10;;;0.60;99.90;;;;;;5067222;28;20057;-71
2021/12/03 01:39:01;;;;;;;4.72;2.42;;;0.60;99.90;;;;;;5050919;28;20125;-71
2021/12/03 01:41:28;;;;;;;7.20;2.10;;;0.60;99.90;;;;;;5066510;28;20190;-71
2021/12/03 01:44:00;;;;;;;6.63;2.47;;;0.60;99.90;;;;;;5051041;28;20131;-71
2021/12/03 01:46:27;;;;;;;6.88;2.10;;;0.60;99.90;;;;;;5067778;28;20072;-71
2021/12/03 01:48:54;;;;;;;6.55;1.75;;;0.60;99.90;;;;;;5050281;28;20069;-71
2021/12/03 01:51:20;;;;;;;3.65;1.63;;;0.60;99.90;;;;;;5052967;28;20088;-71
2021/12/03 01:53:48;;;;;;;7.45;1.85;;;0.60;99.90;;;;;;5031033;28;20080;-72
2021/12/03 01:56:20;;;;;;;4.25;1.88;;;0.70;99.90;;;;;;5030558;28;20057;-72
2021/12/03 01:58:48;;;;;;;3.58;1.67;;;0.70;99.90;;;;;;5047504;28;20374;-72
2021/12/03 02:01:18;;;;;;;3.40;1.50;;;0.70;99.90;;;;;;5030180;28;20057;-72
2021/12/03 02:03:48;;;;;;;5.75;1.60;;;0.70;99.90;;;;;;5049631;28;20088;-72
2021/12/03 02:06:16;;;;;;;4.55;1.67;;;0.70;99.90;;;;;;5051180;28;20061;-71
2021/12/03 02:08:43;;;;;;;5.63;1.40;;;0.70;99.90;;;;;;5050463;28;20114;-72
2021/12/03 02:11:12;;;;;;;3.95;1.33;;;0.70;99.90;;;;;;5050558;28;20187;-72
2021/12/03 02:13:41;;;;;;;5.57;1.80;;;0.70;99.90;;;;;;5050217;28;20497;-72
2021/12/03 02:16:09;;;;;;;5.55;1.50;;;0.80;99.90;;;;;;5050281;28;20089;-72
2021/12/03 02:18:37;;;;;;;3.03;1.58;;;0.80;99.90;;;;;;5050733;28;20088;-72
2021/12/03 02:21:06;;;;;;;4.25;1.58;;;0.80;99.90;;;;;;5050216;28;20080;-72
2021/12/03 02:23:34;;;;;;;3.15;1.70;;;0.80;99.90;;;;;;5049826;28;20522;-71
2021/12/03 02:26:01;;;;;;;6.20;1.85;;;0.80;99.90;;;;;;5052509;28;20059;-71
2021/12/03 02:28:31;;;;;;;4.00;1.83;;;0.80;99.90;;;;;;5054069;28;20071;-71
2021/12/03 02:30:58;;;;;;;4.20;2.28;;;0.90;99.90;;;;;;5053592;28;20057;-71
2021/12/03 02:33:26;;;;;;;6.30;2.28;;;1.20;99.90;;;;;;5054202;28;20110;-71
2021/12/03 02:35:53;;;;;;;7.03;1.85;;;0.90;99.90;;;;;;5054252;28;20060;-71
2021/12/03 02:38:23;;;;;;;5.03;1.85;;;0.90;99.90;;;;;;5053602;28;20547;-72
2021/12/03 02:40:51;;;;;;;3.40;1.65;;;0.90;99.90;;;;;;5053997;28;20465;-72
2021/12/03 02:43:18;;;;;;;4.25;1.98;;;0.90;99.90;;;;;;5053515;28;20240;-71
2021/12/03 02:45:45;;;;;;;5.15;1.77;;;1.00;99.90;;;;;;5053873;28;20489;-71
2021/12/03 02:48:13;;;;;;;4.45;1.80;;;1.00;99.90;;;;;;5054049;28;20465;-71
2021/12/03 02:50:40;;;;;;;4.50;2.10;;;1.00;99.90;;;;;;5052856;28;20095;-71
2021/12/03 02:53:07;;;;;;;4.82;1.55;;;1.00;99.90;;;;;;5070612;28;20497;-71
2021/12/03 02:55:35;;;;;;;4.55;1.70;;;0.90;99.90;;;;;;5070645;28;20454;-71
2021/12/03 02:58:03;;;;;;;5.45;1.77;;;1.00;99.90;;;;;;5053471;28;20136;-71
2021/12/03 03:00:31;;;;;;;4.55;1.92;;;1.00;99.90;;;;;;5053105;28;20103;-71
2021/12/03 03:02:59;;;;;;;6.68;2.40;;;1.00;99.90;;;;;;5070679;28;20085;-71
2021/12/03 03:05:26;;;;;;;4.78;2.03;;;1.00;99.90;;;;;;5052643;28;20057;-71
2021/12/03 03:07:53;;;;;;;6.72;2.45;;;1.00;99.90;;;;;;5053385;28;20052;-71
2021/12/03 03:10:25;;;;;;;4.35;2.28;;;1.00;99.90;;;;;;5069974;28;20099;-71
2021/12/03 03:12:55;;;;;;;8.27;2.83;;;2.00;99.90;;;;;;5060966;28;20050;-71
2021/12/03 03:15:22;;;;;;;7.90;3.90;;;1.10;99.90;;;;;;5033679;28;20501;-71
2021/12/03 03:17:49;;;;;;;6.68;3.47;;;1.10;99.90;;;;;;5033151;28;20085;-71
2021/12/03 03:20:17;;;;;;;5.60;3.03;;;1.10;99.90;;;;;;5037470;28;20056;-71
2021/12/03 03:22:44;;;;;;;9.70;4.22;;;1.10;99.90;;;;;;5070090;28;20491;-71
2021/12/03 03:25:14;;;;;;;11.20;4.65;;;1.10;99.90;;;;;;5069993;28;20056;-71
2021/12/03 03:27:42;;;;;;;8.63;4.45;;;1.20;99.90;;;;;;5052771;28;20404;-71
2021/12/03 03:30:13;;;;;;;8.82;4.43;;;1.80;99.90;;;;;;5069786;28;20084;-71
2021/12/03 03:32:39;;;;;;;;;;;1.20;99.90;;;;;;5069785;28;20053;-71
2021/12/03 03:35:07;;;;;;;10.27;5.22;;;1.20;99.90;;;;;;5053141;28;19921;-71
2021/12/03 03:37:34;;;;;;;13.60;5.82;;;1.20;99.90;;;;;;5052725;28;20178;-71
2021/12/03 03:40:01;;;;;;;15.32;7.22;;;1.20;99.90;;;;;;5052183;28;20057;-71
2021/12/03 03:42:28;;;;;;;17.35;8.75;;;1.20;99.90;;;;;;5053069;28;20095;-71
2021/12/03 03:44:55;;;;;;;14.18;8.23;;;1.20;99.90;;;;;;5052651;28;20106;-71
2021/12/03 03:47:23;;;;;;;14.02;9.27;;;1.20;99.90;;;;;;5052047;28;20075;-71
2021/12/03 03:49:50;;;;;;;20.23;10.20;;;1.20;99.90;;;;;;5052543;28;20052;-71
2021/12/03 03:52:17;;;;;;;15.13;10.65;;;1.20;99.90;;;;;;5052901;28;20061;-71
2021/12/03 03:54:44;;;;;;;16.77;11.27;;;1.20;99.90;;;;;;5052035;28;20390;-71
2021/12/03 03:57:11;;;;;;;17.98;11.82;;;1.20;99.90;;;;;;5052786;28;20045;-71
2021/12/03 03:59:38;;;;;;;20.38;12.48;;;1.30;99.90;;;;;;5052038;28;20112;-71
2021/12/03 04:02:05;;;;;;;22.00;13.57;;;1.30;99.90;;;;;;5051920;28;20464;-71
2021/12/03 04:04:34;;;;;;;19.80;13.05;;;1.30;99.90;;;;;;5052255;28;20456;-71
2021/12/03 04:07:00;;;;;;;21.85;13.98;;;1.30;99.90;;;;;;5052200;28;20057;-71
2021/12/03 04:09:27;;;;;;;24.40;15.15;;;1.30;99.90;;;;;;5051861;28;20110;-72
2021/12/03 04:11:54;;;;;;;21.98;14.95;;;1.30;99.90;;;;;;5052040;28;20092;-71
2021/12/03 04:14:21;;;;;;;21.20;14.82;;;1.30;99.90;;;;;;5052335;28;20065;-71
2021/12/03 04:16:48;;;;;;;26.27;15.70;;;1.20;99.90;;;;;;5051859;28;20084;-71
2021/12/03 04:19:17;;;;;;;23.25;14.98;;;1.20;99.90;;;;;;5052698;28;20057;-71
2021/12/03 04:21:46;;;;;;;24.55;14.73;;;1.30;99.90;;;;;;5051363;28;20056;-71
2021/12/03 04:24:13;;;;;;;22.30;14.90;;;1.20;99.90;;;;;;5052173;28;20111;-71
2021/12/03 04:26:40;;;;;;;21.13;14.25;;;1.20;99.90;;;;;;5052014;28;20057;-71
2021/12/03 04:29:07;;;;;;;22.10;14.27;;;1.30;99.90;;;;;;5050927;28;20048;-70
2021/12/03 04:31:34;;;;;;;22.55;14.90;;;1.30;99.90;;;;;;5051520;28;20088;-70
2021/12/03 04:34:01;;;;;;;19.17;14.15;;;1.30;99.90;;;;;;5051884;28;20161;-68
2021/12/03 04:36:27;;;;;;;18.27;13.95;;;1.30;99.90;;;;;;5051181;28;20463;-69
2021/12/03 04:38:56;;;;;;;23.48;14.07;;;1.30;99.90;;;;;;5051931;28;20061;-69
2021/12/03 04:41:23;;;;;;;20.15;12.57;;;1.30;99.90;;;;;;5051599;28;20098;-70
2021/12/03 04:43:50;;;;;;;33.97;14.10;;;1.30;99.90;;;;;;5050914;28;20088;-70
2021/12/03 04:46:17;;;;;;;18.90;13.68;;;1.30;99.90;;;;;;5051874;28;20452;-70
2021/12/03 04:48:44;;;;;;;21.38;13.45;;;1.30;99.90;;;;;;5051501;28;20500;-70
2021/12/03 04:51:11;;;;;;;21.05;13.52;;;1.20;99.90;;;;;;5051066;28;20126;-70
2021/12/03 04:53:37;;;;;;;21.15;12.73;;;1.20;99.90;;;;;;5051795;28;20103;-70
2021/12/03 04:56:06;;;;;;;17.63;12.65;;;1.20;99.90;;;;;;5051299;28;20088;-70
2021/12/03 04:58:34;;;;;;;20.98;12.82;;;1.20;99.90;;;;;;5050537;28;20064;-70
2021/12/03 05:01:01;;;;;;;21.40;14.05;;;1.20;99.90;;;;;;5051368;28;20444;-70
2021/12/03 05:03:29;;;;;;;18.60;13.18;;;1.20;99.90;;;;;;5051455;28;20056;-69
2021/12/03 05:05:58;;;;;;;21.50;14.35;;;1.20;99.90;;;;;;5050127;28;20089;-70
2021/12/03 05:08:28;;;;;;;19.02;13.52;;;1.20;99.90;;;;;;5051249;28;20053;-70
2021/12/03 05:10:56;;;;;;;19.70;12.70;;;1.20;99.90;;;;;;5051051;28;20045;-70
2021/12/03 05:13:27;;;;;;;19.50;13.13;;;1.20;99.90;;;;;;5051192;28;20064;-71
2021/12/03 05:15:54;;;;;;;19.92;12.88;;;1.20;99.90;;;;;;5051309;28;20057;-70
2021/12/03 05:18:23;;;;;;;16.50;12.38;;;1.20;99.90;;;;;;5050859;28;20599;-70
2021/12/03 05:20:52;;;;;;;18.65;12.90;;;1.20;99.90;;;;;;5050853;28;20493;-70
2021/12/03 05:23:20;;;;;;;18.45;12.73;;;1.20;99.90;;;;;;5051175;28;20465;-70
2021/12/03 05:25:48;;;;;;;20.67;12.93;;;1.20;99.90;;;;;;5050570;28;20138;-70
2021/12/03 05:28:16;;;;;;;17.98;11.45;;;1.30;99.90;;;;;;5049919;28;20103;-70
2021/12/03 05:30:44;;;;;;;18.35;12.60;;;1.30;99.90;;;;;;5074238;28;20465;-69
2021/12/03 05:33:11;;;;;;;14.73;11.15;;;1.30;99.90;;;;;;5053877;28;20114;-69
2021/12/03 05:35:39;;;;;;;14.52;11.20;;;1.30;99.90;;;;;;5071835;28;20091;-69
2021/12/03 05:38:06;;;;;;;20.10;11.82;;;1.20;99.90;;;;;;5066609;28;20076;-68
2021/12/03 05:40:33;;;;;;;15.40;10.68;;;1.20;99.90;;;;;;5075810;28;20558;-69
2021/12/03 05:43:01;;;;;;;16.50;12.00;;;1.20;99.90;;;;;;5058645;28;20134;-69
2021/12/03 05:45:30;;;;;;;17.27;11.23;;;1.20;99.90;;;;;;5060365;28;20084;-69
2021/12/03 05:47:59;;;;;;;13.73;10.40;;;1.20;99.90;;;;;;5068186;28;20122;-69
2021/12/03 05:50:27;;;;;;;16.67;11.20;;;1.20;99.90;;;;;;5060412;28;20079;-68
2021/12/03 05:52:57;;;;;;;14.27;11.13;;;1.20;99.90;;;;;;5063349;28;20118;-69
2021/12/03 05:55:24;;;;;;;14.57;10.73;;;1.20;99.90;;;;;;5058666;28;20064;-69
2021/12/03 05:57:51;;;;;;;17.48;12.38;;;1.20;99.90;;;;;;5050528;28;20053;-69
2021/12/03 06:00:20;;;;;;;18.35;11.55;;;1.20;99.90;;;;;;5061220;28;20060;-69
2021/12/03 06:02:47;;;;;;;12.43;10.43;;;1.20;99.90;;;;;;5063131;28;20080;-69
2021/12/03 06:05:15;;;;;;;19.25;11.65;;;1.20;99.90;;;;;;5073410;28;20500;-69
2021/12/03 06:07:42;;;;;;;15.50;11.25;;;1.20;99.90;;;;;;5070467;28;20052;-70
2021/12/03 06:10:10;;;;;;;14.15;11.43;;;1.20;99.90;;;;;;5073681;28;20057;-69
2021/12/03 06:12:37;;;;;;;19.67;11.80;;;1.30;99.90;;;;;;5073280;28;20095;-69
2021/12/03 06:15:04;;;;;;;18.77;11.82;;;1.30;99.90;;;;;;5066532;28;20052;-70
2021/12/03 06:17:31;;;;;;;17.73;11.27;;;1.30;99.90;;;;;;5062330;28;20052;-70
2021/12/03 06:19:58;;;;;;;17.60;11.13;;;1.30;99.90;;;;;;5077818;28;20052;-70
2021/12/03 06:22:26;;;;;;;16.23;12.02;;;1.40;99.90;;;;;;5061371;28;20260;-70
2021/12/03 06:24:53;;;;;;;20.92;11.95;;;1.40;99.90;;;;;;5063297;28;20048;-70
2021/12/03 06:27:20;;;;;;;19.20;11.70;;;1.40;99.90;;;;;;5063007;28;20052;-70
2021/12/03 06:29:47;;;;;;;16.77;11.98;;;1.40;99.90;;;;;;5057760;28;20060;-69
2021/12/03 06:32:13;;;;;;;18.92;11.55;;;1.40;99.90;;;;;;5071149;28;20056;-69
2021/12/03 06:34:40;;;;;;;19.77;12.95;;;1.50;99.90;;;;;;5056661;28;20049;-70
2021/12/03 06:37:08;;;;;;;19.23;13.30;;;1.50;99.90;;;;;;5057658;28;20053;-69
2021/12/03 06:39:37;;;;;;;20.20;11.93;;;1.50;99.90;;;;;;5079204;28;20139;-70
2021/12/03 06:42:04;;;;;;;17.38;12.43;;;1.60;99.90;;;;;;5062384;28;20087;-70
2021/12/03 06:44:31;;;;;;;20.27;12.00;;;1.60;99.90;;;;;;5061035;28;20150;-69
2021/12/03 06:47:00;;;;;;;19.27;12.10;;;1.70;99.90;;;;;;5056017;28;20091;-69
2021/12/03 06:49:29;;;;;;;19.60;11.63;;;1.70;99.90;;;;;;5052806;28;20048;-68
2021/12/03 06:52:00;;;;;;;19.10;11.45;;;1.80;99.90;;;;;;5052528;28;20438;-69
2021/12/03 06:54:30;;;;;;;15.38;11.20;;;1.80;99.90;;;;;;5048645;28;20476;-69
2021/12/03 06:56:59;;;;;;;16.77;11.63;;;1.90;99.90;;;;;;5053520;28;20063;-69
2021/12/03 06:59:26;;;;;;;18.70;10.95;;;2.00;99.90;;;;;;5057108;28;20385;-70
2021/12/03 07:01:54;;;;;;;14.98;10.52;;;2.20;99.90;;;;;;5057933;28;20064;-70
2021/12/03 07:04:22;;;;;;;16.92;10.63;;;2.00;99.90;;;;;;5051980;28;20061;-70
2021/12/03 07:06:49;;;;;;;15.98;10.15;;;2.10;99.90;;;;;;5057414;28;20107;-70
2021/12/03 07:09:16;;;;;;;17.73;9.50;;;2.00;99.90;;;;;;5057029;28;20492;-70
2021/12/03 07:11:43;;;;;;;14.57;9.15;;;2.00;99.90;;;;;;5043494;28;20126;-70
2021/12/03 07:14:12;;;;;;;18.70;9.63;;;2.10;99.90;;;;;;5054904;28;20093;-70
2021/12/03 07:16:39;;;;;;;16.13;9.52;;;2.00;99.90;;;;;;5034634;28;20460;-70
2021/12/03 07:19:06;;;;;;;14.15;8.65;;;2.00;99.90;;;;;;5048074;28;20489;-70
2021/12/03 07:21:33;;;;;;;13.05;7.63;;;2.10;99.90;;;;;;5050683;28;20056;-71
2021/12/03 07:24:00;;;;;;;14.98;8.40;;;2.10;99.90;;;;;;5051628;28;20099;-71
2021/12/03 07:26:27;;;;;;;11.63;7.80;;;2.10;99.90;;;;;;5034248;28;20107;-71
2021/12/03 07:28:55;;;;;;;14.98;7.72;;;2.10;99.90;;;;;;5031388;28;20053;-70
2021/12/03 07:31:23;;;;;;;10.48;6.47;;;2.10;99.90;;;;;;5044559;28;20059;-70
2021/12/03 07:33:52;;;;;;;10.55;7.28;;;2.20;99.90;;;;;;5049690;28;20052;-70
2021/12/03 07:36:19;;;;;;;9.25;5.55;;;2.20;99.90;;;;;;5051954;28;20052;-71
2021/12/03 07:38:46;;;;;;;8.95;5.80;;;2.20;99.90;;;;;;5051359;28;20517;-71
2021/12/03 07:41:13;;;;;;;10.07;5.35;;;2.30;99.90;;;;;;5051685;28;20505;-71
2021/12/03 07:43:40;;;;;;;9.57;5.03;;;2.30;99.90;;;;;;5050705;28;20136;-70
2021/12/03 07:46:07;;;;;;;10.50;5.63;;;2.30;99.90;;;;;;5033383;28;20089;-71
2021/12/03 07:48:37;;;;;;;9.30;6.00;;;2.30;99.90;;;;;;5047899;28;20111;-71
2021/12/03 07:51:04;;;;;;;10.52;5.15;;;2.50;99.90;;;;;;5051571;28;20056;-72
2021/12/03 07:53:30;;;;;;;11.15;4.50;;;2.40;99.90;;;;;;5051255;28;20060;-75
2021/12/03 07:55:57;;;;;;;9.18;4.72;;;2.40;99.90;;;;;;5051497;28;20110;-70
2021/12/03 07:58:24;;;;;;;7.20;4.65;;;2.40;99.90;;;;;;5050249;28;20473;-70
2021/12/03 08:00:54;;;;;;;8.35;5.07;;;2.40;99.90;;;;;;5048078;28;20509;-71
2021/12/03 08:03:21;;;;;;;6.18;4.70;;;2.40;99.90;;;;;;5051550;28;20090;-71
2021/12/03 08:05:49;;;;;;;10.50;4.53;;;2.40;99.90;;;;;;5051175;28;20155;-71
2021/12/03 08:08:21;;;;;;;5.90;4.25;;;2.40;99.90;;;;;;5050545;28;20052;-70
2021/12/03 08:10:49;;;;;;;8.10;4.03;;;2.40;99.90;;;;;;5040006;28;20087;-70
2021/12/03 08:13:16;;;;;;;8.10;4.75;;;2.40;99.90;;;;;;5041809;28;20091;-70
2021/12/03 08:15:43;;;;;;;7.47;3.72;;;2.50;99.90;;;;;;5046001;28;20053;-70
2021/12/03 08:18:10;;;;;;;10.18;3.88;;;2.50;99.90;;;;;;5051305;28;20533;-70
2021/12/03 08:20:37;;;;;;;8.90;4.03;;;2.50;99.90;;;;;;5050935;28;20554;-70
2021/12/03 08:23:05;;;;;;;11.30;4.10;;;2.50;99.90;;;;;;5050205;28;20063;-70
2021/12/03 08:25:32;;;;;;;5.25;3.40;;;2.60;99.90;;;;;;5040407;28;20084;-70
2021/12/03 08:27:59;;;;;;;6.78;3.50;;;2.60;99.90;;;;;;5046002;28;20497;-70
2021/12/03 08:30:28;;;;;;;10.40;4.20;;;2.60;99.90;;;;;;5049585;28;20451;-70
2021/12/03 08:32:55;;;;;;;7.30;3.92;;;3.20;99.90;;;;;;5031000;28;20060;-70
2021/12/03 08:35:22;;;;;;;10.23;3.88;;;2.70;99.90;;;;;;5030450;28;20531;-70
2021/12/03 08:37:50;;;;;;;8.95;3.90;;;2.70;99.90;;;;;;5034043;28;20069;-70
2021/12/03 08:40:19;;;;;;;8.82;4.18;;;2.80;99.90;;;;;;5050360;28;20049;-70
2021/12/03 08:42:46;;;;;;;9.27;3.88;;;2.90;99.90;;;;;;5050502;28;20096;-71
2021/12/03 08:45:15;;;;;;;8.05;3.85;;;2.90;99.90;;;;;;5048679;28;20052;-71
2021/12/03 08:47:44;;;;;;;9.15;5.10;;;3.00;99.90;;;;;;5031302;28;20104;-70
2021/12/03 08:50:13;;;;;;;8.80;3.63;;;3.10;99.90;;;;;;5049555;28;20481;-71
2021/12/03 08:53:06;;;;;;;9.52;4.88;;;3.10;99.90;;;;;;5050744;28;20409;-71
2021/12/03 08:55:34;;;;;;;9.07;4.32;;;3.10;99.90;;;;;;5043594;28;20065;-71
2021/12/03 08:58:00;;;;;;;10.52;4.40;;;3.10;99.90;;;;;;5045580;28;20065;-71
2021/12/03 09:00:29;;;;;;;9.70;4.50;;;3.20;99.90;;;;;;5035243;28;20339;-72
2021/12/03 09:02:57;;;;;;;10.85;4.93;;;3.20;99.90;;;;;;5045709;28;20506;-71
2021/12/03 09:05:28;;;;;;;10.23;5.15;;;3.20;99.90;;;;;;5035985;28;20061;-72
2021/12/03 09:07:55;;;;;;;7.68;4.55;;;3.40;99.90;;;;;;5043885;28;20056;-70
2021/12/03 09:10:21;;;;;;;12.13;4.90;;;3.30;99.90;;;;;;5048176;28;20531;-70
2021/12/03 09:12:50;;;;;;;10.55;5.32;;;3.30;99.90;;;;;;5049603;28;20118;-70
2021/12/03 09:15:19;;;;;;;9.98;5.00;;;3.30;99.90;;;;;;5047766;28;20064;-71
2021/12/03 09:17:58;;;;;;;10.40;5.23;;;3.30;99.90;;;;;;5048964;28;20060;-71
2021/12/03 09:20:39;;;;;;;13.10;6.47;;;3.30;99.90;;;;;;5035155;28;20304;-71
2021/12/03 09:23:09;;;;;;;10.27;6.13;;;3.30;99.90;;;;;;5029646;28;20459;-71
2021/12/03 09:25:41;;;;;;;14.30;5.70;;;3.50;99.90;;;;;;5029317;28;20567;-71
2021/12/03 09:28:12;;;;;;;13.80;5.95;;;3.40;99.90;;;;;;5029329;28;20057;-71
2021/12/03 09:30:41;;;;;;;11.35;5.88;;;3.40;99.90;;;;;;5028604;28;20085;-71
2021/12/03 09:33:12;;;;;;;11.68;6.18;;;3.40;99.90;;;;;;5036315;28;20132;-70
2021/12/03 09:35:42;;;;;;;14.65;6.90;;;3.40;99.90;;;;;;5028189;28;20059;-70
2021/12/03 09:38:09;;;;;;;13.85;6.80;;;3.40;99.90;;;;;;5029265;28;20064;-70
2021/12/03 09:40:36;;;;;;;15.27;7.20;;;3.40;99.90;;;;;;5047128;28;20094;-70
2021/12/03 09:43:04;;;;;;;11.00;6.55;;;3.50;99.90;;;;;;5049219;28;20135;-70
2021/12/03 09:45:32;;;;;;;14.50;7.15;;;3.50;99.90;;;;;;5048534;28;20060;-71
2021/12/03 09:48:04;;;;;;;16.05;8.82;;;3.50;99.90;;;;;;5049659;28;20083;-70
2021/12/03 09:50:31;;;;;;;14.55;8.35;;;3.50;99.90;;;;;;5047236;28;20079;-71
2021/12/03 09:53:13;;;;;;;15.93;8.25;;;3.60;99.90;;;;;;5048921;28;20128;-71
2021/12/03 09:55:40;;;;;;;17.90;8.32;;;3.60;99.90;;;;;;5044963;28;20068;-71
2021/12/03 09:58:16;;;;;;;12.13;7.38;;;3.60;99.90;;;;;;5041810;28;20057;-72
2021/12/03 10:00:50;;;;;;;18.15;8.30;;;3.60;99.90;;;;;;5030644;28;20489;-71
2021/12/03 10:03:29;;;;;;;14.82;7.82;;;3.60;99.90;;;;;;5044201;28;20122;-71
2021/12/03 10:17:34;;;;;;;15.48;7.43;;;3.80;99.90;;;;;;5029594;28;20398;-71
2021/12/03 10:20:13;;;;;;;13.15;7.40;;;3.80;99.90;;;;;;5028614;28;20493;-71
2021/12/03 10:26:12;;;;;;;15.25;7.57;;;3.90;99.90;;;;;;5024944;28;20055;-70
2021/12/03 10:34:22;;;;;;;11.80;6.03;;;4.90;99.90;;;;;;5035039;28;20052;-71
2021/12/03 10:36:59;;;;;;;13.25;6.45;;;4.00;99.90;;;;;;5040049;28;20056;-71
2021/12/03 10:39:45;;;;;;;10.98;5.88;;;4.00;99.90;;;;;;5048427;28;20107;-71
2021/12/03 10:42:26;;;;;;;15.18;6.53;;;4.00;99.90;;;;;;5043011;28;20136;-72
2021/12/03 10:45:29;;;;;;;9.35;4.97;;;4.00;99.90;;;;;;5045468;28;20493;-70
2021/12/03 10:48:06;;;;;;;12.80;6.38;;;4.00;99.90;;;;;;5051484;28;20057;-70
2021/12/03 10:50:58;;;;;;;11.80;6.10;;;4.00;99.90;;;;;;5050096;28;20071;-70
2021/12/03 10:53:41;;;;;;;13.35;5.30;;;4.00;99.90;;;;;;5049551;28;20053;-70
2021/12/03 11:02:25;;;;;;;14.95;6.20;;;4.00;99.90;;;;;;5061337;28;20090;-70
2021/12/03 11:36:40;;;;;;;13.63;5.05;;;3.70;99.90;;;;;;5096137;28;20847;-71
2021/12/03 11:39:30;;;;;;;9.55;4.57;;;3.60;99.90;;;;;;5119955;28;20141;-71
2021/12/03 12:28:02;;;;;;;9.43;4.85;;;3.70;99.90;;;;;;5099356;28;20051;-71
2021/12/03 13:21:31;;;;;;;8.88;6.30;;;3.40;99.90;;;;;;5044201;28;20404;-71
2021/12/03 14:01:05;;;;;;;9.23;4.97;;;3.80;99.90;;;;;;5014252;28;20060;-71
2021/12/03 14:38:18;;;;;;;6.65;3.78;;;4.20;99.90;;;;;;5029450;28;20506;-70
2021/12/03 14:41:08;;;;;;;14.52;4.32;;;4.20;99.90;;;;;;5031397;28;20401;-70
2021/12/03 14:43:46;;;;;;;7.03;3.72;;;4.10;99.90;;;;;;5031083;28;20041;-71
2021/12/03 14:52:04;;;;;;;10.52;4.55;;;4.20;99.90;;;;;;4998039;28;20455;-70
2021/12/03 14:54:49;;;;;;;8.05;4.25;;;4.20;99.90;;;;;;5027311;28;20118;-70
2021/12/03 14:57:36;;;;;;;7.82;4.30;;;4.20;99.90;;;;;;5027145;28;20053;-69
2021/12/03 15:00:13;;;;;;;8.60;4.25;;;4.20;99.90;;;;;;5032840;28;20037;-71
2021/12/03 15:03:16;;;;;;;6.20;4.47;;;4.20;99.90;;;;;;5028071;28;20053;-71
2021/12/03 15:06:01;;;;;;;8.07;4.90;;;4.20;99.90;;;;;;5027107;28;20045;-70
2021/12/03 15:08:32;;;;;;;9.52;4.53;;;4.20;99.90;;;;;;5029519;28;20412;-71
2021/12/03 15:14:34;;;;;;;8.85;4.80;;;4.20;99.90;;;;;;5028978;28;20057;-71
2021/12/03 15:25:54;;;;;;;9.55;4.85;;;4.10;99.90;;;;;;4982821;28;20461;-69
2021/12/03 15:28:45;;;;;;;8.27;4.90;;;4.10;99.90;;;;;;4981599;28;20042;-70
2021/12/03 15:31:28;;;;;;;6.72;5.43;;;4.10;99.90;;;;;;5014842;28;20137;-71
2021/12/03 15:34:00;;;;;;;11.48;6.55;;;4.10;99.90;;;;;;5029221;28;20049;-70
2021/12/03 15:36:40;;;;;;;8.32;6.30;;;4.10;99.90;;;;;;5029791;28;20107;-70
2021/12/03 15:39:21;;;;;;;8.95;6.88;;;4.00;99.90;;;;;;5030872;28;20421;-70
2021/12/03 15:58:33;;;;;;;9.73;7.78;;;3.60;99.90;;;;;;5027074;28;20523;-70
2021/12/03 16:03:52;;;;;;;12.05;9.10;;;3.90;99.90;;;;;;5030526;28;20049;-71
2021/12/03 16:06:32;;;;;;;12.13;7.97;;;3.90;99.90;;;;;;5027611;28;20057;-71
2021/12/03 16:09:11;;;;;;;17.63;9.33;;;3.90;99.90;;;;;;5034214;28;20057;-71
2021/12/03 16:11:42;;;;;;;10.48;7.88;;;3.90;99.90;;;;;;5030425;28;20621;-71
2021/12/03 16:24:32;;;;;;;12.32;9.50;;;3.90;99.90;;;;;;4965275;28;20574;-71
2021/12/03 16:27:49;;;;;;;13.32;9.70;;;4.00;99.90;;;;;;4962359;28;20392;-70
2021/12/03 16:44:17;;;;;;;11.68;10.10;;;4.00;99.90;;;;;;5028195;28;20057;-71
2021/12/03 16:50:04;;;;;;;13.15;10.30;;;4.00;99.90;;;;;;5025626;28;20516;-71
2021/12/03 16:52:32;;;;;;;18.33;11.38;;;4.00;99.90;;;;;;5027877;28;20049;-71
2021/12/03 16:55:01;;;;;;;14.32;11.77;;;4.00;99.90;;;;;;5026378;28;20123;-71
2021/12/03 16:57:31;;;;;;;13.30;10.82;;;4.00;99.90;;;;;;5027377;28;20045;-71
2021/12/03 17:00:00;;;;;;;14.30;11.98;;;4.00;99.90;;;;;;5030753;28;20045;-70
2021/12/03 17:02:34;;;;;;;13.65;10.88;;;4.00;99.90;;;;;;5026955;28;20413;-71
2021/12/03 17:08:21;;;;;;;16.45;11.65;;;4.00;99.90;;;;;;5026221;28;20203;-71
2021/12/03 17:11:18;;;;;;;15.80;11.80;;;4.00;99.90;;;;;;5029128;28;20051;-71
2021/12/03 17:13:59;;;;;;;15.20;11.60;;;4.00;99.90;;;;;;5029022;28;20075;-71
2021/12/03 17:16:49;;;;;;;14.38;11.45;;;4.00;99.90;;;;;;5027459;28;20037;-71
2021/12/03 17:31:16;;;;;;;16.63;11.68;;;4.00;99.90;;;;;;5022258;28;20107;-72
2021/12/03 17:45:08;;;;;;;14.25;11.18;;;4.00;99.90;;;;;;5023208;28;20494;-70
2021/12/03 17:47:51;;;;;;;14.70;11.40;;;4.00;99.90;;;;;;5016811;28;20052;-71
2021/12/03 17:56:13;;;;;;;14.80;11.10;;;4.10;99.90;;;;;;5027079;28;20045;-71
2021/12/03 17:58:42;;;;;;;15.65;11.95;;;4.10;99.90;;;;;;5029592;28;20509;-70
2021/12/03 18:01:14;;;;;;;17.98;11.80;;;4.10;99.90;;;;;;5026723;28;20422;-70
2021/12/03 18:03:49;;;;;;;17.55;13.43;;;4.10;99.90;;;;;;5019792;28;20469;-71
2021/12/03 18:06:45;;;;;;;15.45;11.05;;;4.10;99.90;;;;;;5023604;28;20490;-71
2021/12/03 18:12:22;;;;;;;16.90;12.27;;;4.10;99.90;;;;;;5028838;28;20148;-72
2021/12/03 18:15:14;;;;;;;19.27;13.27;;;4.10;99.90;;;;;;5025936;28;20049;-72
2021/12/03 18:45:23;;;;;;;18.95;13.45;;;4.20;99.90;;;;;;5030701;28;20046;-71
2021/12/03 18:48:15;;;;;;;21.40;15.02;;;4.20;99.90;;;;;;5015118;28;20088;-71
2021/12/03 18:51:05;;;;;;;20.60;14.07;;;4.20;99.90;;;;;;5022418;28;20040;-72
2021/12/03 18:53:49;;;;;;;22.08;14.23;;;4.20;99.90;;;;;;5029080;28;20080;-71
2021/12/03 18:56:19;;;;;;;21.92;14.43;;;4.20;99.90;;;;;;5021274;28;20041;-72
2021/12/03 18:58:47;;;;;;;23.17;15.48;;;4.20;99.90;;;;;;5021226;28;20084;-71